Time;durP1;ratioP1;P1;durP2;ratioP2;P2;SDS_P1;SDS_P2;PMS_P1;PMS_P2;Temp;Humidity;BMP_temperature;BMP_pressure;BME280_temperature;BME280_humidity;BME280_pressure;Samples;Min_cycle;Max_cycle;Signal;HPM_P1;HPM_P2
2022/04/23 00:01:31;;;;;;;21.33;18.13;;;;;;;10.87;70.36;100387.75;4950666;29;20114;-78
2022/04/23 00:03:56;;;;;;;21.48;17.27;;;;;;;10.87;70.17;100385.97;4950817;29;20603;-76
2022/04/23 00:06:21;;;;;;;22.02;19.00;;;;;;;10.85;70.49;100384.41;4951089;29;20027;-77
2022/04/23 00:08:47;;;;;;;20.63;18.17;;;;;;;10.85;70.19;100387.03;4951248;29;20538;-78
2022/04/23 00:11:12;;;;;;;20.05;17.73;;;;;;;10.81;70.81;100390.91;4949804;29;20031;-78
2022/04/23 00:13:38;;;;;;;20.52;18.33;;;;;;;10.80;70.83;100376.03;4951802;29;20063;-78
2022/04/23 00:16:05;;;;;;;20.60;18.45;;;;;;;10.75;71.02;100383.47;4950868;28;20086;-78
2022/04/23 00:18:31;;;;;;;22.88;18.40;;;;;;;10.77;70.94;100392.91;4965768;28;20031;-76
2022/04/23 00:20:57;;;;;;;20.35;18.17;;;;;;;10.73;70.98;100395.94;4951355;29;20507;-76
2022/04/23 00:23:23;;;;;;;20.17;17.83;;;;;;;10.70;71.40;100393.53;4951429;29;20034;-76
2022/04/23 00:25:51;;;;;;;22.38;18.70;;;;;;;10.66;71.79;100396.44;4981628;28;20395;-76
2022/04/23 00:28:18;;;;;;;21.58;18.20;;;;;;;10.62;71.77;100400.28;4944253;29;20031;-76
2022/04/23 00:30:45;;;;;;;22.75;19.05;;;;;;;10.61;72.06;100393.34;4948434;29;20033;-76
2022/04/23 00:33:10;;;;;;;20.63;18.52;;;;;;;10.57;72.40;100391.91;4950370;29;20023;-76
2022/04/23 00:35:36;;;;;;;20.92;18.83;;;;;;;10.53;72.36;100387.88;4951738;29;20102;-76
2022/04/23 00:38:03;;;;;;;20.85;18.42;;;;;;;10.52;72.40;100391.47;4950838;29;20050;-77
2022/04/23 00:40:30;;;;;;;22.98;18.73;;;;;;;10.46;72.60;100384.06;4965560;28;20491;-78
2022/04/23 00:42:57;;;;;;;21.63;18.98;;;;;;;10.44;72.57;100386.00;4950847;29;20092;-78
2022/04/23 00:45:25;;;;;;;23.33;18.90;;;;;;;10.45;72.92;100387.66;4979828;28;20409;-76
2022/04/23 00:47:50;;;;;;;24.15;18.83;;;;;;;10.40;72.79;100386.34;4947612;29;20097;-76
2022/04/23 00:50:21;;;;;;;21.48;19.17;;;;;;;10.39;73.09;100387.28;4950805;29;20492;-76
2022/04/23 00:52:52;;;;;;;23.30;19.02;;;;;;;10.34;73.02;100390.28;4951254;29;20381;-76
2022/04/23 00:55:18;;;;;;;20.48;18.25;;;;;;;10.32;73.38;100389.59;4949894;29;20039;-78
2022/04/23 00:57:43;;;;;;;20.85;18.48;;;;;;;10.29;73.52;100381.94;4950989;29;20054;-76
2022/04/23 01:00:09;;;;;;;21.35;19.05;;;;;;;10.27;73.45;100382.06;4950459;28;20055;-76
2022/04/23 01:02:36;;;;;;;23.38;19.13;;;;;;;10.27;73.74;100383.88;4947760;29;20038;-76
2022/04/23 01:05:09;;;;;;;21.00;18.88;;;;;;;10.23;74.37;100388.53;4964895;28;20102;-76
2022/04/23 01:07:46;;;;;;;21.35;18.92;;;;;;;10.21;73.80;100394.88;4949851;29;20336;-76
2022/04/23 01:10:12;;;;;;;21.73;19.05;;;;;;;10.21;73.96;100394.88;4951599;28;20035;-76
2022/04/23 01:12:38;;;;;;;23.08;18.90;;;;;;;10.19;74.09;100383.63;4954379;29;20045;-76
2022/04/23 01:15:10;;;;;;;23.77;19.80;;;;;;;10.16;74.17;100387.31;4951514;29;20060;-76
2022/04/23 01:17:36;;;;;;;22.95;19.77;;;;;;;10.15;74.52;100396.16;4954482;28;20054;-76
2022/04/23 01:20:15;;;;;;;23.55;19.55;;;;;;;10.11;74.60;100388.66;4954202;29;20106;-78
2022/04/23 01:22:43;;;;;;;24.45;20.67;;;;;;;10.10;74.72;100394.88;4947655;29;20023;-78
2022/04/23 01:25:12;;;;;;;22.45;19.92;;;;;;;10.06;74.46;100391.66;4954113;29;20027;-78
2022/04/23 01:27:38;;;;;;;24.65;21.02;;;;;;;10.03;75.10;100384.84;4965506;28;20053;-78
2022/04/23 01:30:07;;;;;;;22.73;20.08;;;;;;;10.01;75.04;100392.00;4942123;29;20535;-76
2022/04/23 01:32:33;;;;;;;25.10;20.45;;;;;;;10.02;75.22;100398.09;4948978;29;20046;-76
2022/04/23 01:34:58;;;;;;;25.83;22.15;;;;;;;9.97;75.23;100390.56;4939832;28;20098;-78
2022/04/23 01:37:24;;;;;;;25.05;21.23;;;;;;;9.97;75.77;100397.59;4934894;29;20031;-78
2022/04/23 01:39:49;;;;;;;25.27;22.05;;;;;;;9.96;75.64;100396.78;4950165;29;20028;-78
2022/04/23 01:42:17;;;;;;;25.42;21.27;;;;;;;9.91;75.76;100388.41;4935750;29;20455;-80
2022/04/23 01:44:44;;;;;;;24.60;21.80;;;;;;;9.92;75.61;100395.34;4952193;29;20049;-80
2022/04/23 01:47:12;;;;;;;25.38;21.75;;;;;;;9.91;75.74;100396.31;4985045;28;20078;-77
2022/04/23 01:49:42;;;;;;;26.20;22.42;;;;;;;9.89;76.50;100395.59;4952050;29;20427;-78
2022/04/23 01:52:08;;;;;;;25.60;22.63;;;;;;;9.89;76.15;100395.59;4949325;29;20027;-77
2022/04/23 01:54:34;;;;;;;25.38;22.67;;;;;;;9.87;75.85;100397.50;4953327;29;20039;-77
2022/04/23 01:57:00;;;;;;;24.17;21.52;;;;;;;9.89;76.33;100400.00;4952615;29;20031;-78
2022/04/23 01:59:26;;;;;;;25.02;22.30;;;;;;;9.87;76.31;100401.91;4952904;29;20074;-80
2022/04/23 02:01:52;;;;;;;25.17;22.48;;;;;;;9.86;76.55;100402.88;4950895;29;20027;-80
2022/04/23 02:04:17;;;;;;;25.60;22.10;;;;;;;9.85;76.61;100399.41;4950613;28;20073;-77
2022/04/23 02:06:44;;;;;;;25.05;22.45;;;;;;;9.84;76.42;100399.53;4951780;29;20034;-77
2022/04/23 02:09:09;;;;;;;29.58;23.73;;;;;;;9.84;76.81;100399.53;4953196;29;20027;-78
2022/04/23 02:11:35;;;;;;;26.35;23.13;;;;;;;9.82;76.78;100394.41;4953265;29;20031;-77
2022/04/23 02:14:03;;;;;;;26.67;23.80;;;;;;;9.82;76.73;100398.81;4953046;29;20403;-78
2022/04/23 02:16:29;;;;;;;27.10;24.17;;;;;;;9.81;76.74;100403.25;4953164;28;20039;-79
2022/04/23 02:18:57;;;;;;;26.80;23.92;;;;;;;9.78;77.23;100403.47;4951129;29;20517;-79
2022/04/23 02:21:26;;;;;;;28.10;24.30;;;;;;;9.78;77.02;100395.59;4947873;28;20507;-79
2022/04/23 02:23:53;;;;;;;28.55;24.55;;;;;;;9.75;77.28;100385.31;4964717;28;20027;-78
2022/04/23 02:26:20;;;;;;;30.13;25.15;;;;;;;9.76;77.69;100389.63;4952530;29;20113;-78
2022/04/23 02:28:46;;;;;;;30.90;25.95;;;;;;;9.75;77.52;100393.22;4968963;28;20031;-78
2022/04/23 02:31:12;;;;;;;29.77;25.70;;;;;;;9.74;77.51;100391.53;4953322;29;20086;-79
2022/04/23 02:33:37;;;;;;;31.17;26.63;;;;;;;9.72;78.30;100396.06;4952691;29;20035;-79
2022/04/23 02:36:06;;;;;;;30.23;26.80;;;;;;;9.73;78.13;100395.13;4953101;29;20109;-78
2022/04/23 02:38:34;;;;;;;35.72;27.83;;;;;;;9.70;77.81;100387.47;4951248;29;20082;-78
2022/04/23 02:41:00;;;;;;;30.25;26.98;;;;;;;9.70;78.24;100392.72;4950151;28;20392;-79
2022/04/23 02:43:26;;;;;;;30.92;27.38;;;;;;;9.69;78.59;100388.44;4983242;28;20023;-79
2022/04/23 02:45:52;;;;;;;30.70;26.70;;;;;;;9.67;78.58;100385.94;4951146;29;20106;-80
2022/04/23 02:48:18;;;;;;;30.95;27.58;;;;;;;9.66;78.84;100383.41;4952299;29;20077;-80
2022/04/23 02:50:43;;;;;;;31.25;27.50;;;;;;;9.65;78.69;100390.47;4952914;28;20031;-80
2022/04/23 02:53:09;;;;;;;33.33;28.45;;;;;;;9.65;78.41;100381.75;4951086;29;20039;-79
2022/04/23 02:55:36;;;;;;;31.35;28.05;;;;;;;9.63;79.26;100391.53;4949060;28;20516;-80
2022/04/23 02:58:08;;;;;;;31.10;27.75;;;;;;;9.61;78.86;100382.94;4952048;29;20490;-77
2022/04/23 03:00:35;;;;;;;35.20;29.40;;;;;;;9.62;78.90;100382.00;4951531;28;20036;-80
2022/04/23 03:03:00;;;;;;;32.83;28.77;;;;;;;9.60;79.24;100379.44;4952492;29;20030;-79
2022/04/23 03:05:26;;;;;;;33.25;29.60;;;;;;;9.59;78.76;100377.78;4952283;29;20052;-80
2022/04/23 03:07:53;;;;;;;34.30;29.80;;;;;;;9.57;79.30;100381.47;4951362;29;20383;-79
2022/04/23 03:10:19;;;;;;;35.88;29.98;;;;;;;9.55;79.88;100375.50;4952159;28;20394;-80
2022/04/23 03:12:45;;;;;;;34.80;29.85;;;;;;;9.55;79.76;100378.97;4951786;29;20535;-80
2022/04/23 03:15:13;;;;;;;37.13;30.15;;;;;;;9.54;79.13;100373.84;4951621;29;20109;-77
2022/04/23 03:17:39;;;;;;;35.65;30.15;;;;;;;9.53;79.67;100378.25;4952441;28;20035;-78
2022/04/23 03:20:05;;;;;;;36.10;29.25;;;;;;;9.52;79.88;100371.34;4950417;29;20074;-78
2022/04/23 03:22:31;;;;;;;34.22;30.63;;;;;;;9.52;79.82;100376.59;4950724;29;20118;-78
2022/04/23 03:24:56;;;;;;;34.85;30.35;;;;;;;9.50;79.38;100378.50;4951946;29;20455;-78
2022/04/23 03:27:22;;;;;;;35.33;30.85;;;;;;;9.49;79.85;100376.00;4944255;29;20043;-79
2022/04/23 03:29:48;;;;;;;36.20;31.20;;;;;;;9.45;79.98;100375.41;4951831;29;20031;-79
2022/04/23 03:32:13;;;;;;;35.63;30.90;;;;;;;9.47;79.93;100377.91;4952192;28;20039;-78
2022/04/23 03:34:41;;;;;;;35.35;31.48;;;;;;;9.45;80.20;100380.66;4952684;29;20031;-79
2022/04/23 03:37:07;;;;;;;38.25;31.95;;;;;;;9.45;80.14;100385.06;4950525;29;20031;-78
2022/04/23 03:39:33;;;;;;;35.13;31.30;;;;;;;9.42;80.08;100376.47;4952735;29;20039;-79
2022/04/23 03:41:58;;;;;;;35.75;31.20;;;;;;;9.40;80.57;100367.88;4949859;29;20483;-78
2022/04/23 03:44:24;;;;;;;38.25;31.58;;;;;;;9.39;80.60;100379.31;4946751;29;20089;-78
2022/04/23 03:46:49;;;;;;;35.58;31.40;;;;;;;9.36;80.62;100374.31;4950966;29;20063;-80
2022/04/23 03:49:15;;;;;;;37.80;31.85;;;;;;;9.35;80.81;100370.03;4951531;29;20110;-78
2022/04/23 03:51:41;;;;;;;36.85;32.80;;;;;;;9.35;80.59;100372.66;4952134;29;20081;-78
2022/04/23 03:54:07;;;;;;;39.05;32.33;;;;;;;9.34;80.84;100372.75;4950518;29;20488;-80
2022/04/23 03:56:32;;;;;;;37.50;32.78;;;;;;;9.32;80.72;100358.91;4944065;29;20114;-78
2022/04/23 03:58:58;;;;;;;36.85;32.85;;;;;;;9.29;80.87;100360.00;4951501;29;20051;-78
2022/04/23 04:01:23;;;;;;;40.38;33.72;;;;;;;9.32;81.42;100366.78;4947211;29;20027;-78
2022/04/23 04:03:49;;;;;;;37.53;32.85;;;;;;;9.29;81.56;100362.63;4950427;29;20158;-78
2022/04/23 04:06:14;;;;;;;44.25;34.47;;;;;;;9.25;81.70;100358.56;4949876;29;20061;-79
2022/04/23 04:08:39;;;;;;;40.00;33.50;;;;;;;9.26;81.06;100359.38;4951076;29;20027;-78
2022/04/23 04:11:05;;;;;;;40.53;33.45;;;;;;;9.24;81.02;100359.50;4950134;28;20023;-78
2022/04/23 04:13:30;;;;;;;36.97;32.42;;;;;;;9.26;81.36;100354.97;4950990;29;20158;-77
2022/04/23 04:15:56;;;;;;;38.67;32.90;;;;;;;9.22;81.97;100358.78;4950912;29;20157;-78
2022/04/23 04:18:23;;;;;;;38.78;33.53;;;;;;;9.19;81.66;100356.38;4950231;29;20064;-78
2022/04/23 04:20:49;;;;;;;39.08;32.90;;;;;;;9.19;81.69;100358.16;4950526;29;20046;-77
2022/04/23 04:23:19;;;;;;;38.80;33.42;;;;;;;9.17;81.82;100355.66;4950507;29;20023;-78
2022/04/23 04:25:46;;;;;;;37.53;33.38;;;;;;;9.17;81.46;100346.94;4950654;29;20063;-77
2022/04/23 04:28:12;;;;;;;38.60;33.72;;;;;;;9.16;81.54;100348.72;4951090;28;20059;-78
2022/04/23 04:33:22;;;;;;;42.72;33.67;;;;;;;9.17;82.18;100353.03;4947713;28;20098;-78
2022/04/23 04:35:50;;;;;;;38.65;34.00;;;;;;;9.17;82.10;100350.41;4951732;29;20662;-78
2022/04/23 04:38:16;;;;;;;39.92;35.22;;;;;;;9.15;82.49;100347.06;4949168;29;20096;-78
2022/04/23 04:40:41;;;;;;;37.97;33.60;;;;;;;9.15;82.43;100347.06;4950484;29;20051;-79
2022/04/23 04:43:07;;;;;;;38.15;34.03;;;;;;;9.15;82.53;100351.47;4950747;29;20595;-78
2022/04/23 04:45:33;;;;;;;42.00;34.58;;;;;;;9.14;82.29;100355.88;4952776;28;20027;-79
2022/04/23 04:47:58;;;;;;;40.28;33.95;;;;;;;9.14;82.98;100361.13;4969322;28;20031;-78
2022/04/23 04:50:23;;;;;;;38.30;34.08;;;;;;;9.15;82.13;100357.56;4952860;28;20035;-78
2022/04/23 04:52:49;;;;;;;39.53;34.20;;;;;;;9.15;82.76;100357.56;4952315;29;20030;-77
2022/04/23 04:55:15;;;;;;;41.83;35.17;;;;;;;9.15;82.95;100360.19;4954883;29;20493;-78
2022/04/23 04:57:41;;;;;;;40.00;34.33;;;;;;;9.15;82.78;100361.97;4954402;29;20031;-78
2022/04/23 05:00:08;;;;;;;40.80;34.42;;;;;;;9.16;83.24;100371.50;4967779;28;20174;-78
2022/04/23 05:02:33;;;;;;;38.70;34.30;;;;;;;9.16;83.14;100371.50;4951821;28;20030;-78
2022/04/23 05:04:58;;;;;;;40.60;33.33;;;;;;;9.15;83.37;100364.59;4952623;29;20031;-78
2022/04/23 05:07:24;;;;;;;39.78;34.08;;;;;;;9.15;83.17;100362.81;4952908;28;20031;-78
2022/04/23 05:09:49;;;;;;;39.78;34.80;;;;;;;9.16;83.56;100366.25;4952795;29;20058;-78
2022/04/23 05:12:15;;;;;;;41.80;34.72;;;;;;;9.19;83.57;100373.91;4954290;28;20035;-78
2022/04/23 05:14:40;;;;;;;39.28;34.97;;;;;;;9.18;83.79;100367.81;4953039;29;20110;-78
2022/04/23 05:17:06;;;;;;;42.05;34.85;;;;;;;9.20;83.58;100368.53;4949644;28;20035;-78
2022/04/23 05:19:31;;;;;;;43.38;34.90;;;;;;;9.21;83.71;100366.78;4952616;29;20039;-80
2022/04/23 05:21:56;;;;;;;40.55;34.53;;;;;;;9.22;83.29;100361.41;4952645;29;20075;-80
2022/04/23 05:24:24;;;;;;;40.83;35.50;;;;;;;9.24;83.69;100364.75;4952244;29;20023;-78
2022/04/23 05:26:49;;;;;;;40.10;35.05;;;;;;;9.25;83.86;100369.06;4950827;29;20038;-78
2022/04/23 05:29:15;;;;;;;39.45;34.92;;;;;;;9.25;83.69;100369.06;4948591;29;20027;-78
2022/04/23 05:31:44;;;;;;;39.60;34.92;;;;;;;9.28;83.45;100368.81;4982612;28;20023;-78
2022/04/23 05:34:09;;;;;;;41.53;34.55;;;;;;;9.30;83.78;100364.28;4952400;28;20032;-80
2022/04/23 05:36:34;;;;;;;41.05;34.00;;;;;;;9.33;83.46;100365.84;4951971;29;20031;-80
2022/04/23 05:39:00;;;;;;;40.83;34.45;;;;;;;9.35;84.13;100367.38;4952542;29;20063;-81
2022/04/23 05:41:25;;;;;;;38.55;33.58;;;;;;;9.37;83.55;100367.28;4952136;28;20063;-80
2022/04/23 05:43:50;;;;;;;40.00;34.35;;;;;;;9.38;83.94;100364.53;4967319;28;20047;-78
2022/04/23 05:46:17;;;;;;;39.20;34.67;;;;;;;9.40;83.79;100362.63;4952954;29;20079;-79
2022/04/23 05:48:43;;;;;;;39.60;34.22;;;;;;;9.45;83.26;100364.06;4952288;29;20538;-78
2022/04/23 05:51:09;;;;;;;38.03;33.88;;;;;;;9.47;83.25;100367.41;4952321;29;20399;-80
2022/04/23 05:53:34;;;;;;;39.83;34.70;;;;;;;9.50;83.53;100361.91;4953616;29;20026;-81
2022/04/23 05:56:00;;;;;;;39.72;33.80;;;;;;;9.53;83.31;100364.28;4951569;28;20047;-80
2022/04/23 05:58:25;;;;;;;39.03;34.72;;;;;;;9.55;83.58;100359.75;4950755;29;20046;-78
2022/04/23 06:00:51;;;;;;;38.60;34.33;;;;;;;9.61;82.95;100359.31;4950743;29;20023;-79
2022/04/23 06:03:20;;;;;;;38.10;33.60;;;;;;;9.66;82.85;100362.41;4951147;29;20019;-79
2022/04/23 06:05:46;;;;;;;38.83;34.20;;;;;;;9.69;83.19;100357.75;4950143;28;20475;-78
2022/04/23 06:08:12;;;;;;;38.42;34.22;;;;;;;9.73;82.79;100363.59;4951321;29;20019;-78
2022/04/23 06:10:37;;;;;;;40.25;34.50;;;;;;;9.77;82.89;100361.56;4949544;29;20420;-80
2022/04/23 06:13:07;;;;;;;37.13;33.10;;;;;;;9.82;82.80;100362.88;4952220;29;20027;-81
2022/04/23 06:15:33;;;;;;;38.35;34.00;;;;;;;9.86;82.28;100366.91;4952001;29;20063;-78
2022/04/23 06:17:58;;;;;;;37.05;33.05;;;;;;;9.91;82.07;100351.63;4950856;29;20031;-77
2022/04/23 06:20:23;;;;;;;38.78;33.08;;;;;;;9.95;82.20;100358.31;4951814;29;20114;-78
2022/04/23 06:22:49;;;;;;;36.17;32.28;;;;;;;10.01;82.03;100365.72;4952293;29;20026;-80
2022/04/23 06:25:14;;;;;;;39.22;33.15;;;;;;;10.08;81.24;100365.25;4950754;29;20038;-81
2022/04/23 06:27:40;;;;;;;36.40;31.92;;;;;;;10.12;81.31;100361.41;4952008;29;20070;-81
2022/04/23 06:30:08;;;;;;;37.85;33.03;;;;;;;10.16;81.48;100360.19;4951433;29;20613;-81
2022/04/23 06:32:34;;;;;;;37.60;33.50;;;;;;;10.21;81.45;100358.06;4950858;29;20518;-81
2022/04/23 06:34:59;;;;;;;38.50;32.88;;;;;;;10.29;81.34;100366.16;4949348;28;20031;-78
2022/04/23 06:37:25;;;;;;;36.90;32.90;;;;;;;10.35;80.96;100365.66;4950559;29;20444;-78
2022/04/23 06:39:50;;;;;;;36.22;32.33;;;;;;;10.40;80.69;100357.41;4950820;28;20525;-78
2022/04/23 06:42:16;;;;;;;36.33;31.90;;;;;;;10.45;80.60;100356.09;4948541;29;20027;-81
2022/04/23 06:44:41;;;;;;;35.90;31.98;;;;;;;10.53;79.94;100358.94;4950318;29;20015;-80
2022/04/23 06:47:07;;;;;;;37.15;33.25;;;;;;;10.59;80.09;100357.59;4949925;29;20567;-81
2022/04/23 06:49:32;;;;;;;35.63;31.73;;;;;;;10.66;79.54;100359.59;4951822;29;20035;-81
2022/04/23 06:51:57;;;;;;;35.80;32.10;;;;;;;10.73;79.27;100353.81;4950860;29;20402;-77
2022/04/23 06:54:23;;;;;;;35.15;31.35;;;;;;;10.82;78.98;100358.34;4950274;29;20070;-78
2022/04/23 06:56:49;;;;;;;35.33;31.48;;;;;;;10.88;78.25;100344.69;4964973;28;20443;-79
2022/04/23 06:59:14;;;;;;;35.13;31.42;;;;;;;10.94;77.91;100342.38;4948593;28;20151;-79
2022/04/23 07:01:43;;;;;;;36.60;31.67;;;;;;;11.04;77.84;100342.41;4949891;28;20039;-79
2022/04/23 07:04:09;;;;;;;34.70;30.98;;;;;;;11.10;77.35;100339.28;4950667;29;20985;-78
2022/04/23 07:06:34;;;;;;;34.65;30.50;;;;;;;11.17;76.90;100345.69;4950091;28;20086;-78
2022/04/23 07:08:59;;;;;;;32.42;29.02;;;;;;;11.27;76.69;100343.97;4950493;29;20035;-79
2022/04/23 07:11:25;;;;;;;33.55;29.92;;;;;;;11.35;76.00;100339.84;4950755;29;20031;-79
2022/04/23 07:13:50;;;;;;;35.55;30.52;;;;;;;11.43;76.30;100340.00;4949857;28;20029;-80
2022/04/23 07:16:17;;;;;;;34.45;30.75;;;;;;;11.51;75.96;100337.56;4951491;29;20023;-79
2022/04/23 07:18:42;;;;;;;35.38;31.25;;;;;;;11.60;75.42;100334.13;4951662;29;20019;-79
2022/04/23 07:21:08;;;;;;;32.55;29.05;;;;;;;11.68;74.79;100339.59;4950598;29;20043;-79
2022/04/23 07:26:22;;;;;;;33.45;29.92;;;;;;;11.86;74.11;100340.63;4951075;29;20454;-79
2022/04/23 07:28:47;;;;;;;32.50;29.02;;;;;;;11.99;74.35;100334.28;4951552;29;20106;-78
2022/04/23 07:31:13;;;;;;;33.22;29.25;;;;;;;12.08;73.92;100341.41;4961957;28;20126;-78
2022/04/23 07:39:06;;;;;;;32.17;28.77;;;;;;;12.36;72.35;100316.84;4947868;28;20186;-80
2022/04/23 07:41:31;;;;;;;32.72;29.23;;;;;;;12.46;71.76;100327.44;4949456;28;20035;-80
2022/04/23 07:43:57;;;;;;;31.77;27.80;;;;;;;12.55;71.18;100311.59;4952604;28;20103;-81
2022/04/23 07:46:23;;;;;;;31.50;28.10;;;;;;;12.62;70.45;100313.69;4951458;28;20054;-78
2022/04/23 07:48:50;;;;;;;33.65;29.33;;;;;;;12.72;70.26;100312.69;4966266;28;20035;-78
2022/04/23 07:51:16;;;;;;;30.45;27.25;;;;;;;12.82;69.54;100316.16;4949461;28;20027;-79
2022/04/23 07:53:42;;;;;;;30.17;26.45;;;;;;;12.92;68.83;100313.50;4965338;28;20384;-79
2022/04/23 07:56:07;;;;;;;30.50;25.73;;;;;;;13.02;69.05;100309.03;4950670;28;20090;-79
2022/04/23 07:58:33;;;;;;;32.35;27.00;;;;;;;13.13;68.25;100310.69;4948614;29;20495;-79
2022/04/23 08:00:58;;;;;;;30.70;24.83;;;;;;;13.20;67.46;100310.97;4964597;28;20796;-78
2022/04/23 08:03:24;;;;;;;29.25;26.20;;;;;;;13.30;67.33;100312.63;4948853;29;20037;-78
2022/04/23 08:05:49;;;;;;;30.40;25.25;;;;;;;13.40;67.05;100310.78;4969481;28;20054;-78
2022/04/23 08:08:17;;;;;;;27.27;24.48;;;;;;;13.52;66.69;100307.94;4950022;28;20094;-78
2022/04/23 08:10:44;;;;;;;26.33;23.63;;;;;;;13.62;66.28;100301.66;4946704;29;20078;-79
2022/04/23 08:13:09;;;;;;;28.67;24.73;;;;;;;13.75;65.12;100298.66;4949015;29;20055;-79
2022/04/23 08:15:34;;;;;;;26.88;24.17;;;;;;;13.84;64.52;100310.16;4949633;29;20069;-79
2022/04/23 08:18:00;;;;;;;27.45;24.55;;;;;;;13.93;63.80;100294.22;4961687;28;20131;-80
2022/04/23 08:20:26;;;;;;;26.45;23.63;;;;;;;14.05;63.90;100297.53;4947991;28;20046;-80
2022/04/23 08:22:51;;;;;;;26.55;23.42;;;;;;;14.15;63.78;100290.34;4964812;28;20023;-80
2022/04/23 08:25:17;;;;;;;26.00;23.27;;;;;;;14.27;63.61;100296.25;4949381;29;20385;-80
2022/04/23 08:27:52;;;;;;;26.10;23.35;;;;;;;14.33;63.28;100283.22;4950767;29;20062;-80
2022/04/23 08:30:34;;;;;;;26.02;23.30;;;;;;;14.39;62.96;100279.97;4945709;29;20033;-80
2022/04/23 08:33:04;;;;;;;25.30;22.55;;;;;;;14.51;61.77;100285.09;4949316;29;20047;-80
2022/04/23 08:35:30;;;;;;;26.42;23.63;;;;;;;14.65;62.17;100297.78;4947150;29;20126;-81
2022/04/23 08:37:56;;;;;;;27.40;24.33;;;;;;;14.63;60.88;100275.91;4946298;28;20027;-81
2022/04/23 08:40:21;;;;;;;26.73;24.00;;;;;;;14.72;61.16;100282.94;4948549;28;20458;-80
2022/04/23 08:42:47;;;;;;;25.83;23.10;;;;;;;14.77;61.45;100287.75;4948886;29;20042;-80
2022/04/23 08:45:13;;;;;;;27.00;24.30;;;;;;;14.89;60.67;100294.50;4946403;29;20233;-80
2022/04/23 08:47:44;;;;;;;26.95;24.08;;;;;;;14.96;60.52;100293.72;4946592;29;20133;-80
2022/04/23 08:50:10;;;;;;;28.88;25.95;;;;;;;15.02;59.29;100287.78;4963219;28;20023;-81
2022/04/23 08:52:36;;;;;;;26.30;23.55;;;;;;;15.03;59.47;100292.09;4946904;29;20058;-80
2022/04/23 08:55:06;;;;;;;27.17;24.38;;;;;;;15.11;59.56;100291.31;4947638;29;20038;-80
2022/04/23 08:57:33;;;;;;;31.20;25.33;;;;;;;15.19;58.41;100293.19;4947874;29;20031;-80
2022/04/23 08:59:59;;;;;;;29.40;26.42;;;;;;;15.27;58.91;100294.09;4947779;28;20070;-80
2022/04/23 09:02:27;;;;;;;27.90;24.90;;;;;;;15.33;58.81;100296.09;4946584;29;20031;-80
2022/04/23 09:04:56;;;;;;;28.70;24.98;;;;;;;15.45;58.46;100296.66;4962668;28;20082;-80
2022/04/23 09:07:23;;;;;;;29.42;25.95;;;;;;;15.55;58.46;100300.00;4946845;29;20113;-80
2022/04/23 09:09:58;;;;;;;29.23;25.88;;;;;;;15.62;58.27;100298.44;4945554;28;20110;-80
2022/04/23 09:12:26;;;;;;;29.10;26.20;;;;;;;15.63;57.35;100308.06;4946958;28;20031;-80
2022/04/23 09:23:40;;;;;;;29.67;26.52;;;;;;;15.91;57.23;100295.38;4945702;29;20039;-80
2022/04/23 09:26:16;;;;;;;30.08;26.85;;;;;;;16.01;58.02;100297.91;4946548;28;20027;-80
2022/04/23 09:28:46;;;;;;;31.05;27.77;;;;;;;16.00;56.91;100304.16;4947557;29;20034;-80
2022/04/23 09:31:13;;;;;;;30.95;27.77;;;;;;;15.98;55.81;100296.38;4948532;28;20031;-80
2022/04/23 09:33:43;;;;;;;30.13;27.13;;;;;;;15.97;56.18;100302.69;4951007;29;20273;-80
2022/04/23 09:36:08;;;;;;;31.85;28.65;;;;;;;15.99;55.97;100302.50;4950461;29;20212;-80
2022/04/23 09:38:34;;;;;;;31.83;28.63;;;;;;;16.08;56.56;100293.59;4950140;29;20050;-80
2022/04/23 09:41:16;;;;;;;33.45;30.25;;;;;;;16.11;55.88;100306.53;4966271;28;20448;-79
2022/04/23 09:44:05;;;;;;;32.75;29.25;;;;;;;16.24;56.42;100300.75;4952517;28;20027;-80
2022/04/23 09:46:48;;;;;;;32.22;29.08;;;;;;;16.29;56.64;100287.81;4952719;28;20700;-79
2022/04/23 09:49:21;;;;;;;32.60;29.40;;;;;;;16.38;55.63;100286.81;4949475;29;20035;-78
2022/04/23 09:52:03;;;;;;;32.97;29.58;;;;;;;16.49;56.56;100285.69;4951793;28;20094;-78
2022/04/23 09:54:31;;;;;;;32.97;29.63;;;;;;;16.57;55.18;100293.66;4952207;29;20122;-78
2022/04/23 09:56:57;;;;;;;31.45;28.38;;;;;;;16.66;55.27;100278.56;4951577;28;20039;-78
2022/04/23 09:59:30;;;;;;;31.88;28.65;;;;;;;16.74;55.89;100287.38;4951123;29;20547;-78
2022/04/23 10:01:56;;;;;;;30.65;27.58;;;;;;;16.78;54.56;100286.03;4951488;29;20496;-78
2022/04/23 10:04:27;;;;;;;30.63;27.42;;;;;;;16.95;55.52;100280.72;4951559;29;20023;-78
2022/04/23 10:06:54;;;;;;;32.45;29.15;;;;;;;17.05;54.15;100271.56;4950715;28;20042;-78
2022/04/23 10:09:21;;;;;;;32.03;28.92;;;;;;;17.17;54.21;100272.03;4951336;28;20027;-78
2022/04/23 10:11:49;;;;;;;31.42;28.30;;;;;;;17.32;54.68;100265.03;4952376;28;20035;-78
2022/04/23 10:14:22;;;;;;;29.75;26.63;;;;;;;17.43;53.77;100274.44;4966608;28;20031;-77
2022/04/23 10:16:52;;;;;;;31.85;28.35;;;;;;;17.50;53.15;100273.59;4966326;28;20023;-77
2022/04/23 10:19:20;;;;;;;30.85;27.73;;;;;;;17.62;52.38;100265.25;4952019;28;20057;-77
2022/04/23 10:21:59;;;;;;;29.98;26.75;;;;;;;17.66;53.27;100251.41;4950966;28;20074;-77
2022/04/23 10:24:33;;;;;;;29.80;26.80;;;;;;;17.73;52.24;100255.06;4950683;29;20447;-78
2022/04/23 10:27:07;;;;;;;29.48;26.45;;;;;;;17.86;51.64;100251.84;4966883;28;20050;-78
2022/04/23 10:29:34;;;;;;;31.60;28.27;;;;;;;17.93;51.53;100259.94;4951874;29;20027;-79
2022/04/23 10:32:11;;;;;;;29.25;26.50;;;;;;;17.99;52.19;100260.06;4951634;29;20565;-77
2022/04/23 10:34:38;;;;;;;29.55;26.55;;;;;;;18.05;50.91;100262.06;4952740;29;20038;-78
2022/04/23 10:37:17;;;;;;;29.80;26.30;;;;;;;18.09;51.07;100252.69;4964423;28;20110;-78
2022/04/23 10:40:03;;;;;;;30.40;27.38;;;;;;;18.08;49.64;100263.53;4952540;29;20098;-77
2022/04/23 10:42:31;;;;;;;28.40;25.65;;;;;;;18.21;49.94;100268.25;4951535;28;20506;-77
2022/04/23 10:45:03;;;;;;;29.08;26.27;;;;;;;18.28;50.04;100261.22;4951375;29;20016;-79
2022/04/23 10:47:33;;;;;;;29.25;26.35;;;;;;;18.39;50.21;100253.63;4966121;28;20047;-78
2022/04/23 10:50:21;;;;;;;29.70;26.70;;;;;;;18.45;50.59;100263.59;4966515;28;20466;-78
2022/04/23 10:52:49;;;;;;;30.88;27.88;;;;;;;18.48;49.42;100249.09;4946179;29;20039;-77
2022/04/23 10:55:15;;;;;;;30.08;27.05;;;;;;;18.55;49.40;100252.69;4963959;28;20027;-79
2022/04/23 10:57:51;;;;;;;29.58;26.67;;;;;;;18.64;50.01;100256.97;4949896;29;20028;-79
2022/04/23 11:00:22;;;;;;;30.15;27.23;;;;;;;18.62;49.19;100244.81;4948107;29;20050;-78
2022/04/23 11:02:54;;;;;;;30.50;27.45;;;;;;;18.66;48.84;100249.63;4949741;28;20031;-79
2022/04/23 11:13:57;;;;;;;28.40;25.58;;;;;;;18.79;48.75;100252.47;4950333;29;20050;-78
2022/04/23 11:16:29;;;;;;;29.85;26.80;;;;;;;18.72;48.20;100248.88;4949784;28;20039;-78
2022/04/23 11:18:58;;;;;;;27.73;25.00;;;;;;;18.82;48.49;100247.81;4965663;28;20090;-78
2022/04/23 11:21:27;;;;;;;26.98;24.23;;;;;;;18.91;48.50;100252.06;4949921;29;20092;-78
2022/04/23 11:23:54;;;;;;;28.58;25.60;;;;;;;18.91;47.45;100241.41;4950788;29;20035;-78
2022/04/23 11:26:45;;;;;;;28.02;25.13;;;;;;;19.01;48.66;100242.78;4945881;29;20035;-78
2022/04/23 11:29:13;;;;;;;26.70;23.83;;;;;;;19.05;47.17;100248.56;4948480;29;20490;-78
2022/04/23 11:31:42;;;;;;;28.20;25.30;;;;;;;19.07;46.80;100242.03;4950922;29;20554;-78
2022/04/23 11:34:07;;;;;;;27.23;24.38;;;;;;;19.13;47.69;100240.47;4963240;28;20498;-78
2022/04/23 11:36:36;;;;;;;27.50;24.90;;;;;;;19.16;47.55;100240.09;4944213;28;20022;-78
2022/04/23 11:39:09;;;;;;;27.65;24.88;;;;;;;19.12;47.18;100238.81;4947121;29;20073;-78
2022/04/23 11:41:36;;;;;;;;;;;;;;;19.21;48.08;100237.75;4948491;28;20034;-78